Time;durP1;ratioP1;P1;durP2;ratioP2;P2;SDS_P1;SDS_P2;PMS_P1;PMS_P2;Temp;Humidity;BMP_temperature;BMP_pressure;BME280_temperature;BME280_humidity;BME280_pressure;Samples;Min_cycle;Max_cycle;Signal;HPM_P1;HPM_P2
2023/06/08 00:02:42;;;;;;;14.70;8.20;;;18.40;99.90;;;;;;10477650;28;20207;-79
2023/06/08 00:08:04;;;;;;;13.98;7.68;;;18.30;99.90;;;;;;10461036;28;20210;-76
2023/06/08 00:13:26;;;;;;;13.88;8.43;;;18.20;99.90;;;;;;10473112;28;20228;-77
2023/06/08 00:18:49;;;;;;;13.82;8.20;;;18.10;99.90;;;;;;10490592;28;20412;-82
2023/06/08 00:24:11;;;;;;;11.13;7.53;;;18.10;1.00;;;;;;10476371;28;20290;-79
2023/06/08 00:29:33;;;;;;;10.75;7.18;;;18.00;99.90;;;;;;10471497;28;20231;-80
2023/06/08 00:34:56;;;;;;;11.93;5.97;;;18.00;99.90;;;;;;10490891;28;20242;-85
2023/06/08 00:40:17;;;;;;;11.00;6.30;;;17.90;99.90;;;;;;10460813;28;20514;-79
2023/06/08 00:45:38;;;;;;;11.52;6.55;;;17.90;99.90;;;;;;10449148;28;20212;-84
2023/06/08 00:51:02;;;;;;;11.88;6.78;;;17.90;1.00;;;;;;10476667;28;20297;-79
2023/06/08 00:56:26;;;;;;;10.38;6.00;;;17.80;99.90;;;;;;10464327;28;20200;-82
2023/06/08 01:01:50;;;;;;;11.32;7.20;;;17.70;99.90;;;;;;10441727;28;20224;-79
2023/06/08 01:07:40;;;;;;;11.32;6.53;;;17.60;99.90;;;;;;10441835;28;20195;-86
2023/06/08 01:13:29;;;;;;;14.52;9.10;;;17.60;1.00;;;;;;10498646;28;20523;-86
2023/06/08 01:18:54;;;;;;;14.77;8.98;;;17.50;1.00;;;;;;10483744;28;20188;-82
2023/06/08 01:24:20;;;;;;;14.57;9.18;;;17.50;1.00;;;;;;10469102;28;20211;-85
2023/06/08 01:29:41;;;;;;;14.02;7.72;;;17.40;1.00;;;;;;10458119;28;20270;-85
2023/06/08 01:35:03;;;;;;;11.00;6.72;;;17.30;1.00;;;;;;10455449;28;20346;-85
2023/06/08 01:40:34;;;;;;;12.50;6.53;;;17.30;1.00;;;;;;10426694;28;20250;-85
2023/06/08 01:46:01;;;;;;;8.27;6.03;;;17.30;1.00;;;;;;10490461;28;20200;-87
2023/06/08 01:51:23;;;;;;;9.75;6.30;;;17.30;1.00;;;;;;10468518;28;20439;-86
2023/06/08 01:56:45;;;;;;;8.68;6.40;;;17.20;1.00;;;;;;10440904;28;20267;-83
2023/06/08 02:02:06;;;;;;;9.90;6.80;;;17.20;1.00;;;;;;10443921;28;20412;-85
2023/06/08 02:07:29;;;;;;;11.35;6.47;;;17.10;1.00;;;;;;10463658;28;20272;-86
2023/06/08 02:12:51;;;;;;;13.23;7.03;;;17.10;1.00;;;;;;10439178;28;20216;-82
2023/06/08 02:18:13;;;;;;;8.65;5.95;;;17.10;1.00;;;;;;10439201;28;20203;-83
2023/06/08 02:23:34;;;;;;;10.77;6.35;;;16.90;1.00;;;;;;10456566;28;20491;-83
2023/06/08 02:28:56;;;;;;;10.85;6.57;;;16.90;1.00;;;;;;10481025;28;20358;-83
2023/06/08 02:34:17;;;;;;;9.40;7.05;;;16.90;1.00;;;;;;10454613;28;20557;-85
2023/06/08 02:39:39;;;;;;;9.00;6.22;;;16.90;1.00;;;;;;10438247;28;20193;-85
2023/06/08 02:45:00;;;;;;;9.25;6.38;;;16.90;1.00;;;;;;10418153;28;20199;-80
2023/06/08 02:50:22;;;;;;;7.90;5.40;;;16.90;1.00;;;;;;10473975;28;20239;-76
2023/06/08 02:55:44;;;;;;;9.30;6.82;;;16.90;1.00;;;;;;10479751;28;20199;-76
2023/06/08 03:01:16;;;;;;;8.48;5.40;;;17.00;1.00;;;;;;10493660;28;20479;-75
2023/06/08 03:07:04;;;;;;;10.70;6.25;;;17.10;1.00;;;;;;10444496;28;20208;-83
2023/06/08 03:12:30;;;;;;;12.98;6.43;;;17.10;1.00;;;;;;10463864;28;20230;-85
2023/06/08 03:17:55;;;;;;;8.68;6.30;;;17.10;1.00;;;;;;10472732;28;20242;-81
2023/06/08 03:23:20;;;;;;;9.02;6.57;;;17.10;1.00;;;;;;10450730;28;20214;-84
2023/06/08 03:28:43;;;;;;;7.43;5.47;;;17.20;1.00;;;;;;10477484;28;20211;-76
2023/06/08 03:34:05;;;;;;;9.75;6.78;;;17.30;1.00;;;;;;10472004;28;20224;-75
2023/06/08 03:39:30;;;;;;;11.35;5.85;;;17.40;1.00;;;;;;10421803;28;20211;-77
2023/06/08 03:44:52;;;;;;;7.13;5.53;;;17.50;1.00;;;;;;10442498;28;20448;-79
2023/06/08 03:50:15;;;;;;;7.00;5.25;;;17.70;1.00;;;;;;10462412;28;20545;-79
2023/06/08 03:55:38;;;;;;;6.85;5.03;;;17.60;1.00;;;;;;10427891;28;20192;-83
2023/06/08 04:01:01;;;;;;;5.88;4.78;;;17.70;1.00;;;;;;10449339;28;20200;-77
2023/06/08 04:06:23;;;;;;;7.90;5.18;;;17.80;1.00;;;;;;10436328;28;20394;-85
2023/06/08 04:11:45;;;;;;;6.72;4.97;;;18.10;1.00;;;;;;10435524;28;20331;-76
2023/06/08 04:17:07;;;;;;;6.68;5.00;;;18.20;1.00;;;;;;10435215;28;20194;-82
2023/06/08 04:22:29;;;;;;;8.05;5.45;;;18.30;1.00;;;;;;10443642;28;20200;-76
2023/06/08 04:27:51;;;;;;;5.63;4.45;;;18.40;1.00;;;;;;10430178;28;20227;-80
2023/06/08 04:33:16;;;;;;;9.10;4.50;;;18.50;1.00;;;;;;10478411;28;20227;-83
2023/06/08 04:38:38;;;;;;;5.38;4.38;;;18.70;99.90;;;;;;10479378;28;20201;-81
2023/06/08 04:44:01;;;;;;;6.43;4.55;;;18.80;99.90;;;;;;10442942;28;20212;-83
2023/06/08 04:49:31;;;;;;;4.25;3.83;;;19.00;99.90;;;;;;10427736;28;20471;-78
2023/06/08 04:54:52;;;;;;;10.20;5.53;;;19.20;99.90;;;;;;10442162;28;20204;-80
2023/06/08 05:00:15;;;;;;;10.60;5.93;;;19.30;99.90;;;;;;10443054;28;20200;-79
2023/06/08 05:05:38;;;;;;;8.95;6.00;;;19.50;99.90;;;;;;10441465;28;20251;-82
2023/06/08 05:10:59;;;;;;;11.40;5.68;;;19.60;99.90;;;;;;10444235;28;20224;-83
2023/06/08 05:16:20;;;;;;;7.70;4.60;;;19.70;99.90;;;;;;10442499;28;20196;-87
2023/06/08 05:21:42;;;;;;;6.22;4.65;;;19.80;99.90;;;;;;10444742;28;20583;-84
2023/06/08 05:27:04;;;;;;;10.57;5.63;;;20.00;99.90;;;;;;10442226;28;20266;-76
2023/06/08 05:32:25;;;;;;;4.93;3.67;;;20.10;99.90;;;;;;10472932;28;20231;-75
2023/06/08 05:37:46;;;;;;;6.47;3.65;;;20.20;99.90;;;;;;10473274;28;20200;-81
2023/06/08 05:43:08;;;;;;;4.50;3.83;;;20.30;99.90;;;;;;10441352;28;20195;-81
2023/06/08 05:48:29;;;;;;;7.10;3.92;;;20.30;99.90;;;;;;10477744;28;20227;-80
2023/06/08 05:53:50;;;;;;;4.45;3.70;;;20.60;99.90;;;;;;10481320;28;20219;-84
2023/06/08 05:59:12;;;;;;;10.60;5.85;;;20.80;99.90;;;;;;10480520;28;20318;-82
2023/06/08 06:04:35;;;;;;;12.05;5.22;;;21.00;99.90;;;;;;10481904;28;20211;-82
2023/06/08 06:09:57;;;;;;;4.80;3.65;;;21.10;99.90;;;;;;10446361;28;20200;-82
2023/06/08 06:15:19;;;;;;;5.03;3.83;;;21.30;93.20;;;;;;10440131;28;20219;-78
2023/06/08 06:20:41;;;;;;;4.00;3.55;;;21.60;1.00;;;;;;10439906;28;20557;-84
2023/06/08 06:26:02;;;;;;;4.15;3.72;;;21.90;1.00;;;;;;10460279;28;20212;-83
2023/06/08 06:31:23;;;;;;;4.20;3.45;;;22.30;35.90;;;;;;10462722;28;20223;-80
2023/06/08 06:36:45;;;;;;;4.03;3.60;;;22.60;1.00;;;;;;10480850;28;20191;-85
2023/06/08 06:42:06;;;;;;;5.43;4.22;;;23.00;1.00;;;;;;10474709;28;20249;-83
2023/06/08 06:47:43;;;;;;;5.75;3.85;;;23.90;99.90;;;;;;10479133;28;20188;-83
2023/06/08 06:53:04;;;;;;;10.02;4.93;;;23.90;99.90;;;;;;10479252;28;20223;-80
2023/06/08 06:58:26;;;;;;;5.45;3.95;;;24.80;1.00;;;;;;10466445;28;20196;-80
2023/06/08 07:03:48;;;;;;;8.07;4.07;;;25.20;99.90;;;;;;10479678;28;20213;-79
2023/06/08 07:09:10;;;;;;;5.75;3.80;;;25.70;99.90;;;;;;10447000;28;20197;-80
2023/06/08 07:14:31;;;;;;;7.18;4.15;;;26.20;99.90;;;;;;10425201;28;20251;-78
2023/06/08 07:19:53;;;;;;;6.55;4.20;;;26.70;99.90;;;;;;10437842;28;20188;-81
2023/06/08 07:25:15;;;;;;;6.15;3.85;;;27.10;99.90;;;;;;10467855;28;20203;-85
2023/06/08 07:30:36;;;;;;;5.53;3.97;;;27.70;99.90;;;;;;10458752;28;20223;-80
2023/06/08 07:35:58;;;;;;;7.45;3.80;;;27.80;99.90;;;;;;10439031;28;20208;-77
2023/06/08 07:41:20;;;;;;;5.45;3.97;;;27.90;99.90;;;;;;10436817;28;20559;-81
2023/06/08 07:46:41;;;;;;;5.65;4.43;;;28.10;99.90;;;;;;10453468;28;20199;-79
2023/06/08 07:52:02;;;;;;;5.10;4.07;;;28.50;99.90;;;;;;10477019;28;20231;-80
2023/06/08 07:57:24;;;;;;;7.68;4.13;;;29.00;99.90;;;;;;10450283;28;20208;-80
2023/06/08 08:02:45;;;;;;;7.95;4.22;;;29.40;99.90;;;;;;10435878;28;20208;-81
2023/06/08 08:08:07;;;;;;;6.32;3.78;;;29.90;99.90;;;;;;10465522;28;20202;-80
2023/06/08 08:13:28;;;;;;;7.60;4.22;;;29.80;99.90;;;;;;10485907;28;20286;-78
2023/06/08 08:18:50;;;;;;;8.35;4.07;;;29.80;1.00;;;;;;10482583;28;20222;-80
2023/06/08 08:24:11;;;;;;;8.98;4.18;;;29.90;1.00;;;;;;10485480;28;20490;-77
2023/06/08 08:29:33;;;;;;;5.97;4.15;;;30.30;1.00;;;;;;10484749;28;20183;-78
2023/06/08 08:34:54;;;;;;;7.28;4.10;;;30.80;99.90;;;;;;10478167;28;20502;-77
2023/06/08 08:40:15;;;;;;;8.38;4.20;;;31.30;99.90;;;;;;10469880;28;20202;-80
2023/06/08 08:45:39;;;;;;;7.63;4.00;;;31.60;99.90;;;;;;10483867;28;20207;-79
2023/06/08 08:51:01;;;;;;;6.55;4.47;;;;;;;;;;10452195;28;20712;-81
2023/06/08 08:56:28;;;;;;;6.45;3.63;;;;;;;;;;10428902;28;20200;-77
2023/06/08 09:01:50;;;;;;;8.23;4.25;;;;;;;;;;10469555;28;20206;-91
2023/06/08 09:07:11;;;;;;;11.05;3.83;;;32.60;99.90;;;;;;10459026;28;20438;-76
2023/06/08 09:12:43;;;;;;;7.97;3.78;;;32.70;99.90;;;;;;10484588;28;20215;-74
2023/06/08 09:18:25;;;;;;;15.95;4.43;;;;;;;;;;10484311;28;20213;-74
2023/06/08 09:24:11;;;;;;;6.18;3.70;;;33.20;99.90;;;;;;10462713;28;20530;-77
2023/06/08 09:29:40;;;;;;;5.00;3.95;;;33.50;99.90;;;;;;10413285;28;20227;-76
2023/06/08 09:35:02;;;;;;;11.40;3.85;;;33.60;99.90;;;;;;10393459;28;20278;-78
2023/06/08 09:40:24;;;;;;;13.48;4.20;;;33.70;99.90;;;;;;10390955;28;20209;-77
2023/06/08 09:45:47;;;;;;;6.70;3.45;;;32.80;99.90;;;;;;10406277;28;20204;-77
2023/06/08 09:51:10;;;;;;;23.48;4.72;;;32.20;99.90;;;;;;10412001;28;20260;-83
2023/06/08 09:56:32;;;;;;;13.23;4.43;;;31.80;99.90;;;;;;10395871;28;20206;-77
2023/06/08 10:01:55;;;;;;;39.08;6.10;;;31.30;99.90;;;;;;10409648;28;20220;-77
2023/06/08 10:07:19;;;;;;;17.92;4.70;;;30.80;99.90;;;;;;10400857;28;20236;-76
2023/06/08 10:12:41;;;;;;;17.48;4.13;;;31.40;99.90;;;;;;10410617;28;20271;-77
2023/06/08 10:18:03;;;;;;;21.55;4.47;;;32.30;99.90;;;;;;10406284;28;20272;-77
2023/06/08 10:23:26;;;;;;;9.73;3.58;;;32.50;99.90;;;;;;10375252;28;20225;-77
2023/06/08 10:29:11;;;;;;;12.20;5.40;;;32.30;99.90;;;;;;10395370;28;20240;-78
2023/06/08 10:34:42;;;;;;;25.92;9.88;;;32.30;99.90;;;;;;10402934;28;20341;-77
2023/06/08 10:40:09;;;;;;;9.60;4.68;;;32.00;99.90;;;;;;10401521;28;20193;-79
2023/06/08 10:45:33;;;;;;;9.77;4.85;;;31.30;99.90;;;;;;10397831;28;20603;-83
2023/06/08 10:50:57;;;;;;;6.38;3.38;;;31.70;99.90;;;;;;10411081;28;20315;-87
2023/06/08 10:56:18;;;;;;;8.25;4.75;;;31.70;99.90;;;;;;10400002;28;20194;-75
2023/06/08 11:01:40;;;;;;;7.32;4.40;;;32.40;99.90;;;;;;10387664;28;20193;-76
2023/06/08 11:07:05;;;;;;;7.85;3.60;;;33.00;99.90;;;;;;10394796;28;20251;-79
2023/06/08 11:12:27;;;;;;;8.23;3.92;;;33.50;99.90;;;;;;10411326;28;20298;-76
2023/06/08 11:17:58;;;;;;;9.57;4.60;;;33.80;99.90;;;;;;10403586;28;20200;-83
2023/06/08 11:23:20;;;;;;;8.98;4.38;;;32.60;99.90;;;;;;10403906;28;20437;-80
2023/06/08 11:28:43;;;;;;;5.57;3.22;;;32.60;99.90;;;;;;10410274;28;20217;-79
2023/06/08 11:34:06;;;;;;;8.60;4.53;;;32.20;99.90;;;;;;10412616;28;20227;-85
2023/06/08 11:39:32;;;;;;;6.22;3.60;;;31.50;99.90;;;;;;10416330;28;20191;-82
2023/06/08 11:44:57;;;;;;;4.88;3.60;;;31.90;99.90;;;;;;10407483;28;20213;-77
2023/06/08 11:50:19;;;;;;;5.10;3.70;;;32.10;99.90;;;;;;10369987;28;20233;-77
2023/06/08 11:55:45;;;;;;;6.75;4.50;;;32.90;99.90;;;;;;10393366;28;20246;-79
2023/06/08 12:01:08;;;;;;;5.18;4.07;;;33.20;99.90;;;;;;10347670;28;20217;-77
2023/06/08 12:06:32;;;;;;;12.25;4.10;;;32.90;99.90;;;;;;10352048;28;20491;-77
2023/06/08 12:11:53;;;;;;;5.22;3.30;;;32.60;99.90;;;;;;10395246;28;20233;-83
2023/06/08 12:17:15;;;;;;;4.88;3.15;;;32.40;99.90;;;;;;10398111;28;20204;-83
2023/06/08 12:22:36;;;;;;;7.00;4.10;;;32.60;99.90;;;;;;10415344;28;20201;-82
2023/06/08 12:27:59;;;;;;;6.78;4.00;;;32.70;99.90;;;;;;10402360;28;20260;-82
2023/06/08 12:33:21;;;;;;;4.63;3.45;;;32.60;99.90;;;;;;10397570;28;20221;-82
2023/06/08 12:38:43;;;;;;;4.28;3.20;;;31.90;99.90;;;;;;10413383;28;20197;-83
2023/06/08 12:44:04;;;;;;;4.25;3.42;;;31.90;99.90;;;;;;10396415;28;20243;-79
2023/06/08 12:49:26;;;;;;;7.28;3.72;;;31.70;99.90;;;;;;10387803;28;20248;-85
2023/06/08 12:54:50;;;;;;;6.68;3.75;;;31.60;99.90;;;;;;10396289;28;20247;-76
2023/06/08 13:00:14;;;;;;;4.50;3.65;;;31.80;99.90;;;;;;10419441;28;20219;-76
2023/06/08 13:05:36;;;;;;;4.10;3.45;;;32.10;99.90;;;;;;10391369;28;20489;-76
2023/06/08 13:10:58;;;;;;;9.30;4.22;;;32.20;99.90;;;;;;10424567;28;20486;-76
2023/06/08 13:16:20;;;;;;;8.00;3.70;;;32.40;99.90;;;;;;10397382;28;20275;-76
2023/06/08 13:21:41;;;;;;;4.93;3.17;;;32.40;99.90;;;;;;10410471;28;20443;-76
2023/06/08 13:27:03;;;;;;;4.22;3.33;;;32.50;99.90;;;;;;10416024;28;20193;-76
2023/06/08 13:32:26;;;;;;;5.35;3.63;;;32.50;99.90;;;;;;10401718;28;20228;-76
2023/06/08 13:37:47;;;;;;;6.68;3.67;;;32.30;99.90;;;;;;10424935;28;20193;-80
2023/06/08 13:43:11;;;;;;;7.10;3.35;;;31.70;99.90;;;;;;10416938;28;20276;-81
2023/06/08 13:48:33;;;;;;;7.10;3.22;;;31.40;99.90;;;;;;10372821;28;20229;-79
2023/06/08 13:53:54;;;;;;;6.80;3.20;;;30.90;99.90;;;;;;10414222;28;20292;-76
2023/06/08 13:59:15;;;;;;;4.05;3.40;;;30.50;99.90;;;;;;10421976;28;20420;-76
2023/06/08 14:04:36;;;;;;;8.45;3.30;;;30.10;99.90;;;;;;10389112;28;20208;-76
2023/06/08 14:09:59;;;;;;;7.07;4.13;;;29.80;99.90;;;;;;10419285;28;20192;-76
2023/06/08 14:15:20;;;;;;;8.30;4.32;;;29.60;99.90;;;;;;10394232;28;20473;-77
2023/06/08 14:20:44;;;;;;;11.05;3.97;;;29.50;99.90;;;;;;10363826;28;20209;-80
2023/06/08 14:26:05;;;;;;;21.52;3.63;;;29.20;99.90;;;;;;10355238;28;20193;-81
2023/06/08 14:31:28;;;;;;;7.55;4.18;;;29.00;99.90;;;;;;10367758;28;20205;-82
2023/06/08 14:36:49;;;;;;;6.75;4.10;;;29.10;99.90;;;;;;10352863;28;20205;-79
2023/06/08 14:42:12;;;;;;;5.35;3.47;;;29.40;99.90;;;;;;10353598;28;20194;-80
2023/06/08 14:47:35;;;;;;;6.40;3.65;;;29.30;99.90;;;;;;10354200;28;20210;-77
2023/06/08 14:52:57;;;;;;;8.57;4.50;;;29.10;99.90;;;;;;10353369;28;20460;-78
2023/06/08 14:58:19;;;;;;;13.77;10.13;;;29.10;99.90;;;;;;10377635;28;20243;-78
2023/06/08 15:03:42;;;;;;;4.78;3.67;;;29.10;99.90;;;;;;10392181;28;20205;-80
2023/06/08 15:09:03;;;;;;;5.75;3.75;;;29.20;99.90;;;;;;10371365;28;20205;-79
2023/06/08 15:14:27;;;;;;;3.75;3.17;;;29.10;99.90;;;;;;10377031;28;20387;-78
2023/06/08 15:19:50;;;;;;;4.07;3.47;;;29.00;99.90;;;;;;10388630;28;20189;-80
2023/06/08 15:25:12;;;;;;;8.10;3.70;;;28.90;99.90;;;;;;10368732;28;20204;-78
2023/06/08 15:30:33;;;;;;;4.32;3.28;;;28.80;99.90;;;;;;10396029;28;20200;-80
2023/06/08 15:35:54;;;;;;;4.43;3.50;;;28.60;99.90;;;;;;10394854;28;20404;-78
2023/06/08 15:41:15;;;;;;;5.25;3.80;;;28.50;99.90;;;;;;10354917;28;20228;-77
2023/06/08 15:46:37;;;;;;;9.82;5.25;;;28.40;99.90;;;;;;10354949;28;20201;-77
2023/06/08 15:51:58;;;;;;;6.25;4.07;;;28.30;99.90;;;;;;10356739;28;20237;-80
2023/06/08 15:57:19;;;;;;;4.82;3.35;;;28.00;99.90;;;;;;10382811;28;20200;-77
2023/06/08 16:02:41;;;;;;;7.13;4.68;;;27.80;99.90;;;;;;10389834;28;20189;-77
2023/06/08 16:08:02;;;;;;;8.73;6.28;;;27.70;99.90;;;;;;10383332;28;20224;-78
2023/06/08 16:13:24;;;;;;;4.72;3.70;;;27.60;99.90;;;;;;10393682;28;20217;-77
2023/06/08 16:18:45;;;;;;;4.85;3.30;;;27.60;99.90;;;;;;10354313;28;20466;-81
2023/06/08 16:24:20;;;;;;;6.60;3.75;;;27.50;99.90;;;;;;10357527;28;20206;-79
2023/06/08 16:29:42;;;;;;;5.53;3.10;;;27.40;99.90;;;;;;10398521;28;20240;-79
2023/06/08 16:35:04;;;;;;;4.82;3.60;;;27.40;99.90;;;;;;10387612;28;20299;-78
2023/06/08 16:40:26;;;;;;;6.50;3.28;;;27.30;99.90;;;;;;10394733;28;20206;-78
2023/06/08 16:45:48;;;;;;;5.90;3.20;;;27.20;99.90;;;;;;10401242;28;20271;-81
2023/06/08 16:51:09;;;;;;;6.80;3.53;;;27.20;99.90;;;;;;10400598;28;20295;-80
2023/06/08 16:56:31;;;;;;;3.88;3.03;;;27.10;99.90;;;;;;10399459;28;20204;-81
2023/06/08 17:01:52;;;;;;;5.35;3.92;;;27.20;99.90;;;;;;10400481;28;20216;-80
2023/06/08 17:07:14;;;;;;;4.53;3.15;;;27.20;99.90;;;;;;10399874;28;20391;-81
2023/06/08 17:12:35;;;;;;;8.73;3.30;;;27.20;99.90;;;;;;10374776;28;20225;-80
2023/06/08 17:17:56;;;;;;;5.57;3.70;;;27.20;99.90;;;;;;10378399;28;20206;-81
2023/06/08 17:23:17;;;;;;;6.65;3.10;;;27.10;99.90;;;;;;10359039;28;20189;-81
2023/06/08 17:28:38;;;;;;;6.03;3.53;;;26.80;99.90;;;;;;10359690;28;20206;-80
2023/06/08 17:34:00;;;;;;;8.23;5.50;;;26.70;99.90;;;;;;10358323;28;20527;-79
2023/06/08 17:39:21;;;;;;;4.47;3.22;;;26.50;99.90;;;;;;10358375;28;20206;-80
2023/06/08 17:44:43;;;;;;;3.22;2.92;;;26.30;99.90;;;;;;10358530;28;20285;-77
2023/06/08 17:50:04;;;;;;;7.25;3.97;;;26.30;99.90;;;;;;10358708;28;20218;-77
2023/06/08 17:55:26;;;;;;;4.20;3.10;;;26.10;99.90;;;;;;10374530;28;20524;-77
2023/06/08 18:00:48;;;;;;;4.03;3.28;;;26.00;99.90;;;;;;10384218;28;20197;-80
2023/06/08 18:06:10;;;;;;;4.70;3.55;;;25.90;99.90;;;;;;10383524;28;20251;-77
2023/06/08 18:11:39;;;;;;;5.50;3.78;;;25.80;99.90;;;;;;10372380;28;20436;-78
2023/06/08 18:17:01;;;;;;;5.57;3.58;;;25.70;99.90;;;;;;10360128;28;20210;-77
2023/06/08 18:22:23;;;;;;;6.68;3.42;;;25.60;99.90;;;;;;10356551;28;20500;-77
2023/06/08 18:27:44;;;;;;;4.97;3.25;;;25.40;99.90;;;;;;10370008;28;20202;-77
2023/06/08 18:33:05;;;;;;;5.82;3.78;;;25.30;99.90;;;;;;10355944;28;20280;-77
2023/06/08 18:38:27;;;;;;;5.10;3.33;;;25.10;99.90;;;;;;10369216;28;20200;-79
2023/06/08 18:43:49;;;;;;;9.13;4.13;;;25.00;99.90;;;;;;10356053;28;20194;-78
2023/06/08 18:49:10;;;;;;;5.80;3.53;;;24.90;99.90;;;;;;10354397;28;20348;-78
2023/06/08 18:54:33;;;;;;;5.15;3.50;;;24.80;99.90;;;;;;10341916;28;20217;-79
2023/06/08 18:59:54;;;;;;;6.03;3.78;;;24.70;99.90;;;;;;10391627;28;20193;-78
2023/06/08 19:05:16;;;;;;;8.63;3.80;;;24.60;99.90;;;;;;10396616;28;20491;-78
2023/06/08 19:10:37;;;;;;;7.88;3.20;;;24.50;99.90;;;;;;10371441;28;20391;-80
2023/06/08 19:16:02;;;;;;;9.98;3.70;;;24.40;99.90;;;;;;10389696;28;20247;-79
2023/06/08 19:21:24;;;;;;;5.75;3.97;;;24.30;99.90;;;;;;10350312;28;20202;-79
2023/06/08 19:26:45;;;;;;;9.63;5.57;;;23.90;99.90;;;;;;10354412;28;20383;-80
2023/06/08 19:32:07;;;;;;;14.38;6.93;;;23.70;99.90;;;;;;10357586;28;20520;-77
2023/06/08 19:37:28;;;;;;;10.77;6.07;;;23.60;99.90;;;;;;10354954;28;20220;-77
2023/06/08 19:42:49;;;;;;;10.13;4.93;;;23.40;99.90;;;;;;10355684;28;20188;-79
2023/06/08 19:48:10;;;;;;;9.77;5.55;;;23.20;99.90;;;;;;10354526;28;20230;-79
2023/06/08 19:53:32;;;;;;;12.10;6.07;;;23.00;99.90;;;;;;10354556;28;20226;-80
2023/06/08 19:58:54;;;;;;;7.80;5.60;;;23.00;99.90;;;;;;10367251;28;20205;-78
2023/06/08 20:04:15;;;;;;;7.65;4.80;;;22.60;99.90;;;;;;10339358;28;20281;-77
2023/06/08 20:09:37;;;;;;;6.97;4.82;;;22.60;99.90;;;;;;10384691;28;20204;-77
2023/06/08 20:14:59;;;;;;;11.68;7.13;;;22.50;99.90;;;;;;10380882;28;20225;-77
2023/06/08 20:20:20;;;;;;;7.63;5.65;;;22.30;99.90;;;;;;10352997;28;20543;-77
2023/06/08 20:25:42;;;;;;;6.18;5.03;;;22.10;99.90;;;;;;10353907;28;20198;-77
2023/06/08 20:31:03;;;;;;;9.80;5.22;;;22.00;99.90;;;;;;10357240;28;20431;-78
2023/06/08 20:36:25;;;;;;;6.20;4.78;;;21.90;99.90;;;;;;10392787;28;20232;-77
2023/06/08 20:41:46;;;;;;;8.40;4.70;;;21.70;99.90;;;;;;10393098;28;20427;-77
2023/06/08 20:47:07;;;;;;;8.10;5.38;;;21.60;99.90;;;;;;10382107;28;20256;-77
2023/06/08 20:52:29;;;;;;;8.63;4.95;;;21.40;99.90;;;;;;10392478;28;20221;-77
2023/06/08 20:57:50;;;;;;;4.80;4.30;;;21.30;99.90;;;;;;10392536;28;20193;-77
2023/06/08 21:03:14;;;;;;;6.32;4.25;;;21.20;99.90;;;;;;10371502;28;20209;-78
2023/06/08 21:08:36;;;;;;;8.82;4.32;;;21.10;99.90;;;;;;10364536;28;20224;-77
2023/06/08 21:13:57;;;;;;;6.00;3.90;;;21.00;99.90;;;;;;10360558;28;20646;-80
2023/06/08 21:19:19;;;;;;;5.25;4.13;;;21.00;99.90;;;;;;10375606;28;20197;-78
2023/06/08 21:24:42;;;;;;;9.20;4.68;;;20.90;99.90;;;;;;10358961;28;20384;-80
2023/06/08 21:30:03;;;;;;;7.95;5.07;;;20.80;99.90;;;;;;10345067;28;20542;-78
2023/06/08 21:35:24;;;;;;;10.30;5.35;;;20.60;99.90;;;;;;10359463;28;20395;-80
2023/06/08 21:40:46;;;;;;;12.75;5.03;;;20.50;99.90;;;;;;10360257;28;20716;-79
2023/06/08 21:46:07;;;;;;;7.28;4.65;;;20.40;99.90;;;;;;10359082;28;20265;-79
2023/06/08 21:51:29;;;;;;;9.60;4.68;;;20.30;99.90;;;;;;10358727;28;20403;-79
2023/06/08 21:56:50;;;;;;;7.60;4.50;;;20.20;99.90;;;;;;10385377;28;20270;-79
2023/06/08 22:02:12;;;;;;;7.07;4.05;;;20.00;99.90;;;;;;10384349;28;20275;-77
2023/06/08 22:07:33;;;;;;;5.97;4.32;;;19.90;99.90;;;;;;10384301;28;20197;-77
2023/06/08 22:13:13;;;;;;;6.63;3.70;;;19.90;99.90;;;;;;10357144;28;20230;-77
2023/06/08 22:18:35;;;;;;;6.07;4.30;;;19.70;99.90;;;;;;10397343;28;20212;-78
2023/06/08 22:23:56;;;;;;;6.10;3.90;;;19.70;99.90;;;;;;10398260;28;20276;-79
2023/06/08 22:29:18;;;;;;;7.70;4.10;;;19.70;1.00;;;;;;10397755;28;20191;-79
2023/06/08 22:34:39;;;;;;;5.38;4.13;;;19.60;1.00;;;;;;10359668;28;20237;-80
2023/06/08 22:40:02;;;;;;;5.80;3.97;;;19.70;1.00;;;;;;10357246;28;20524;-78
2023/06/08 22:50:10;;;;;;;7.00;3.63;;;19.50;99.90;;;;;;10555669;28;20531;-78
2023/06/08 22:55:31;;;;;;;5.20;3.50;;;19.50;99.90;;;;;;10554067;28;20182;-77
2023/06/08 23:00:53;;;;;;;5.97;3.92;;;19.30;99.90;;;;;;10525170;28;20393;-79
2023/06/08 23:06:15;;;;;;;7.20;3.72;;;19.20;99.90;;;;;;10500745;28;20297;-79
2023/06/08 23:11:39;;;;;;;5.55;3.83;;;19.10;99.90;;;;;;10554323;28;20194;-78
2023/06/08 23:17:01;;;;;;;5.35;3.83;;;19.10;99.90;;;;;;10539260;28;20196;-78
2023/06/08 23:22:25;;;;;;;6.25;3.80;;;19.10;99.90;;;;;;10541810;28;20201;-78
2023/06/08 23:27:46;;;;;;;8.15;4.55;;;19.00;99.90;;;;;;10552566;28;20276;-80
2023/06/08 23:33:07;;;;;;;6.78;3.50;;;19.00;99.90;;;;;;10523726;28;20290;-78
2023/06/08 23:38:28;;;;;;;5.68;3.97;;;18.90;99.90;;;;;;10510223;28;20222;-77
2023/06/08 23:43:50;;;;;;;7.00;3.83;;;18.80;99.90;;;;;;10511000;28;20199;-77
2023/06/08 23:49:11;;;;;;;6.47;4.10;;;18.90;99.90;;;;;;10535194;28;20238;-78
2023/06/08 23:54:32;;;;;;;4.72;3.10;;;18.90;99.90;;;;;;10537345;28;20194;-79
2023/06/08 23:59:53;;;;;;;6.55;3.85;;;18.80;99.90;;;;;;10519134;28;20199;-77
